sensor_id;sensor_type;location;lat;lon;timestamp;temperature;humidity
14095;DHT22;18096;48.142;16.290;2023-08-01T00:01:00;20.70;99.90
14095;DHT22;18096;48.142;16.290;2023-08-01T00:03:26;20.70;99.90
14095;DHT22;18096;48.142;16.290;2023-08-01T00:05:51;20.60;99.90
14095;DHT22;18096;48.142;16.290;2023-08-01T00:08:16;20.70;99.90
14095;DHT22;18096;48.142;16.290;2023-08-01T00:10:42;20.60;99.90
14095;DHT22;18096;48.142;16.290;2023-08-01T00:13:08;20.60;99.90
14095;DHT22;18096;48.142;16.290;2023-08-01T00:15:33;20.60;99.90
14095;DHT22;18096;48.142;16.290;2023-08-01T00:17:59;20.50;99.90
14095;DHT22;18096;48.142;16.290;2023-08-01T00:20:25;20.60;99.90
14095;DHT22;18096;48.142;16.290;2023-08-01T00:22:51;20.60;99.90
14095;DHT22;18096;48.142;16.290;2023-08-01T00:25:17;20.50;99.90
14095;DHT22;18096;48.142;16.290;2023-08-01T00:27:43;20.50;99.90
14095;DHT22;18096;48.142;16.290;2023-08-01T00:30:09;20.50;99.90
14095;DHT22;18096;48.142;16.290;2023-08-01T00:32:36;20.50;99.90
14095;DHT22;18096;48.142;16.290;2023-08-01T00:35:03;20.40;99.90
14095;DHT22;18096;48.142;16.290;2023-08-01T00:37:28;20.40;99.90
14095;DHT22;18096;48.142;16.290;2023-08-01T00:39:54;20.30;99.90
14095;DHT22;18096;48.142;16.290;2023-08-01T00:42:19;20.30;99.90
14095;DHT22;18096;48.142;16.290;2023-08-01T00:44:45;20.30;99.90
14095;DHT22;18096;48.142;16.290;2023-08-01T00:47:14;20.30;99.90
14095;DHT22;18096;48.142;16.290;2023-08-01T00:49:40;20.30;99.90
14095;DHT22;18096;48.142;16.290;2023-08-01T00:52:06;20.30;99.90
14095;DHT22;18096;48.142;16.290;2023-08-01T00:54:32;20.20;99.90
14095;DHT22;18096;48.142;16.290;2023-08-01T00:57:02;20.20;99.90
14095;DHT22;18096;48.142;16.290;2023-08-01T00:59:29;20.20;99.90
14095;DHT22;18096;48.142;16.290;2023-08-01T01:01:55;20.20;99.90
14095;DHT22;18096;48.142;16.290;2023-08-01T01:04:21;20.10;99.90
14095;DHT22;18096;48.142;16.290;2023-08-01T01:06:48;20.10;99.90
14095;DHT22;18096;48.142;16.290;2023-08-01T01:09:17;20.10;99.90
14095;DHT22;18096;48.142;16.290;2023-08-01T01:11:43;20.10;99.90
14095;DHT22;18096;48.142;16.290;2023-08-01T01:14:09;20.10;99.90
14095;DHT22;18096;48.142;16.290;2023-08-01T01:16:34;20.10;99.90
14095;DHT22;18096;48.142;16.290;2023-08-01T01:19:00;20.10;99.90
14095;DHT22;18096;48.142;16.290;2023-08-01T01:21:25;20.10;99.90
14095;DHT22;18096;48.142;16.290;2023-08-01T01:23:51;20.10;99.90
14095;DHT22;18096;48.142;16.290;2023-08-01T01:26:17;20.10;99.90
14095;DHT22;18096;48.142;16.290;2023-08-01T01:28:46;20.10;99.90
14095;DHT22;18096;48.142;16.290;2023-08-01T01:31:12;20.10;99.90
14095;DHT22;18096;48.142;16.290;2023-08-01T01:33:38;20.10;99.90
14095;DHT22;18096;48.142;16.290;2023-08-01T01:36:04;20.00;99.90
14095;DHT22;18096;48.142;16.290;2023-08-01T01:38:29;20.00;99.90
14095;DHT22;18096;48.142;16.290;2023-08-01T01:40:55;20.00;99.90
14095;DHT22;18096;48.142;16.290;2023-08-01T01:43:20;20.00;99.90
14095;DHT22;18096;48.142;16.290;2023-08-01T01:45:46;20.00;99.90
14095;DHT22;18096;48.142;16.290;2023-08-01T01:48:12;20.00;99.90
14095;DHT22;18096;48.142;16.290;2023-08-01T01:50:37;20.00;99.90
14095;DHT22;18096;48.142;16.290;2023-08-01T01:53:03;20.00;99.90
14095;DHT22;18096;48.142;16.290;2023-08-01T01:55:29;20.00;99.90
14095;DHT22;18096;48.142;16.290;2023-08-01T01:57:54;20.10;99.90
14095;DHT22;18096;48.142;16.290;2023-08-01T02:00:19;20.10;99.90
14095;DHT22;18096;48.142;16.290;2023-08-01T02:02:45;20.10;99.90
14095;DHT22;18096;48.142;16.290;2023-08-01T02:05:10;20.00;99.90
14095;DHT22;18096;48.142;16.290;2023-08-01T02:07:36;20.00;99.90
14095;DHT22;18096;48.142;16.290;2023-08-01T02:10:02;20.00;99.90
14095;DHT22;18096;48.142;16.290;2023-08-01T02:12:27;20.00;99.90
14095;DHT22;18096;48.142;16.290;2023-08-01T02:14:57;20.00;99.90
14095;DHT22;18096;48.142;16.290;2023-08-01T02:17:22;20.00;99.90
14095;DHT22;18096;48.142;16.290;2023-08-01T02:19:48;20.10;99.90
14095;DHT22;18096;48.142;16.290;2023-08-01T02:22:13;20.10;99.90
14095;DHT22;18096;48.142;16.290;2023-08-01T02:24:39;20.20;99.90
14095;DHT22;18096;48.142;16.290;2023-08-01T02:27:04;20.20;99.90
14095;DHT22;18096;48.142;16.290;2023-08-01T02:29:30;20.10;99.90
14095;DHT22;18096;48.142;16.290;2023-08-01T02:31:55;20.10;99.90
14095;DHT22;18096;48.142;16.290;2023-08-01T02:34:21;20.10;99.90
14095;DHT22;18096;48.142;16.290;2023-08-01T02:36:47;20.10;99.90
14095;DHT22;18096;48.142;16.290;2023-08-01T02:39:12;20.10;99.90
14095;DHT22;18096;48.142;16.290;2023-08-01T02:41:38;20.10;99.90
14095;DHT22;18096;48.142;16.290;2023-08-01T02:44:03;20.10;99.90
14095;DHT22;18096;48.142;16.290;2023-08-01T02:46:29;20.20;99.90
14095;DHT22;18096;48.142;16.290;2023-08-01T02:48:55;20.10;99.90
14095;DHT22;18096;48.142;16.290;2023-08-01T02:51:20;20.10;99.90
14095;DHT22;18096;48.142;16.290;2023-08-01T02:53:46;20.20;99.90
14095;DHT22;18096;48.142;16.290;2023-08-01T02:56:11;20.10;99.90
14095;DHT22;18096;48.142;16.290;2023-08-01T02:58:37;20.10;99.90
14095;DHT22;18096;48.142;16.290;2023-08-01T03:01:06;20.20;99.90
14095;DHT22;18096;48.142;16.290;2023-08-01T03:03:32;20.20;99.90
14095;DHT22;18096;48.142;16.290;2023-08-01T03:05:58;20.20;99.90
14095;DHT22;18096;48.142;16.290;2023-08-01T03:08:24;20.20;99.90
14095;DHT22;18096;48.142;16.290;2023-08-01T03:10:50;20.30;99.90
14095;DHT22;18096;48.142;16.290;2023-08-01T03:13:15;20.30;99.90
14095;DHT22;18096;48.142;16.290;2023-08-01T03:15:41;20.20;99.90
14095;DHT22;18096;48.142;16.290;2023-08-01T03:18:06;20.20;99.90
14095;DHT22;18096;48.142;16.290;2023-08-01T03:20:32;20.20;99.90
14095;DHT22;18096;48.142;16.290;2023-08-01T03:22:57;20.20;99.90
14095;DHT22;18096;48.142;16.290;2023-08-01T03:25:23;20.20;99.90
14095;DHT22;18096;48.142;16.290;2023-08-01T03:27:48;20.30;99.90
14095;DHT22;18096;48.142;16.290;2023-08-01T03:30:14;20.20;99.90
14095;DHT22;18096;48.142;16.290;2023-08-01T03:32:39;20.20;99.90
14095;DHT22;18096;48.142;16.290;2023-08-01T03:35:05;20.30;99.90
14095;DHT22;18096;48.142;16.290;2023-08-01T03:37:31;20.20;99.90
14095;DHT22;18096;48.142;16.290;2023-08-01T03:39:56;20.20;99.90
14095;DHT22;18096;48.142;16.290;2023-08-01T03:42:22;20.20;99.90
14095;DHT22;18096;48.142;16.290;2023-08-01T03:44:48;20.20;99.90
14095;DHT22;18096;48.142;16.290;2023-08-01T03:47:13;20.20;99.90
14095;DHT22;18096;48.142;16.290;2023-08-01T03:49:39;20.20;99.90
14095;DHT22;18096;48.142;16.290;2023-08-01T03:52:05;20.20;99.90
14095;DHT22;18096;48.142;16.290;2023-08-01T03:54:30;20.20;99.90
14095;DHT22;18096;48.142;16.290;2023-08-01T03:56:56;20.10;99.90
14095;DHT22;18096;48.142;16.290;2023-08-01T03:59:22;20.10;99.90
14095;DHT22;18096;48.142;16.290;2023-08-01T04:01:47;20.20;99.90
14095;DHT22;18096;48.142;16.290;2023-08-01T04:04:13;20.10;99.90
14095;DHT22;18096;48.142;16.290;2023-08-01T04:06:39;20.20;99.90
14095;DHT22;18096;48.142;16.290;2023-08-01T04:09:04;20.10;99.90
14095;DHT22;18096;48.142;16.290;2023-08-01T04:11:31;20.10;99.90
14095;DHT22;18096;48.142;16.290;2023-08-01T04:13:57;20.20;99.90
14095;DHT22;18096;48.142;16.290;2023-08-01T04:16:23;20.20;99.90
14095;DHT22;18096;48.142;16.290;2023-08-01T04:18:48;20.10;99.90
14095;DHT22;18096;48.142;16.290;2023-08-01T04:21:14;20.10;99.90
14095;DHT22;18096;48.142;16.290;2023-08-01T04:23:40;20.10;99.90
14095;DHT22;18096;48.142;16.290;2023-08-01T04:26:05;20.10;99.90
14095;DHT22;18096;48.142;16.290;2023-08-01T04:28:32;20.10;99.90
14095;DHT22;18096;48.142;16.290;2023-08-01T04:30:57;20.10;99.90
14095;DHT22;18096;48.142;16.290;2023-08-01T04:33:23;20.20;99.90
14095;DHT22;18096;48.142;16.290;2023-08-01T04:35:48;20.20;99.90
14095;DHT22;18096;48.142;16.290;2023-08-01T04:38:14;20.20;99.90
14095;DHT22;18096;48.142;16.290;2023-08-01T04:40:40;20.10;99.90
14095;DHT22;18096;48.142;16.290;2023-08-01T04:43:05;20.10;99.90
14095;DHT22;18096;48.142;16.290;2023-08-01T04:45:31;20.10;99.90
14095;DHT22;18096;48.142;16.290;2023-08-01T04:47:56;20.10;99.90
14095;DHT22;18096;48.142;16.290;2023-08-01T04:50:22;20.20;99.90
14095;DHT22;18096;48.142;16.290;2023-08-01T04:52:47;20.20;99.90
14095;DHT22;18096;48.142;16.290;2023-08-01T04:55:13;20.20;99.90
14095;DHT22;18096;48.142;16.290;2023-08-01T04:57:39;20.30;99.90
14095;DHT22;18096;48.142;16.290;2023-08-01T05:00:05;20.30;99.90
14095;DHT22;18096;48.142;16.290;2023-08-01T05:02:31;20.30;99.90
14095;DHT22;18096;48.142;16.290;2023-08-01T05:04:56;20.30;99.90
14095;DHT22;18096;48.142;16.290;2023-08-01T05:07:22;20.30;99.90
14095;DHT22;18096;48.142;16.290;2023-08-01T05:09:47;20.40;99.90
14095;DHT22;18096;48.142;16.290;2023-08-01T05:12:13;20.50;99.90
14095;DHT22;18096;48.142;16.290;2023-08-01T05:14:38;20.50;99.90
14095;DHT22;18096;48.142;16.290;2023-08-01T05:17:04;20.50;99.90
14095;DHT22;18096;48.142;16.290;2023-08-01T05:19:30;20.60;99.90
14095;DHT22;18096;48.142;16.290;2023-08-01T05:21:55;20.60;99.90
14095;DHT22;18096;48.142;16.290;2023-08-01T05:24:21;20.70;99.90
14095;DHT22;18096;48.142;16.290;2023-08-01T05:26:47;20.70;99.90
14095;DHT22;18096;48.142;16.290;2023-08-01T05:29:12;20.70;99.90
14095;DHT22;18096;48.142;16.290;2023-08-01T05:31:38;20.80;99.90
14095;DHT22;18096;48.142;16.290;2023-08-01T05:34:03;20.80;99.90
14095;DHT22;18096;48.142;16.290;2023-08-01T05:36:29;20.80;99.90
14095;DHT22;18096;48.142;16.290;2023-08-01T05:38:54;20.80;99.90
14095;DHT22;18096;48.142;16.290;2023-08-01T05:41:20;20.80;99.90
14095;DHT22;18096;48.142;16.290;2023-08-01T05:43:46;20.80;99.90
14095;DHT22;18096;48.142;16.290;2023-08-01T05:46:12;20.90;99.90
14095;DHT22;18096;48.142;16.290;2023-08-01T05:48:37;20.90;99.90
14095;DHT22;18096;48.142;16.290;2023-08-01T05:51:03;20.90;99.90
14095;DHT22;18096;48.142;16.290;2023-08-01T05:53:29;20.90;99.90
14095;DHT22;18096;48.142;16.290;2023-08-01T05:55:55;20.80;99.90
14095;DHT22;18096;48.142;16.290;2023-08-01T05:58:21;20.80;99.90
14095;DHT22;18096;48.142;16.290;2023-08-01T06:00:46;20.80;99.90
14095;DHT22;18096;48.142;16.290;2023-08-01T06:03:12;20.80;99.90
14095;DHT22;18096;48.142;16.290;2023-08-01T06:05:37;20.80;99.90
14095;DHT22;18096;48.142;16.290;2023-08-01T06:08:03;20.80;99.90
14095;DHT22;18096;48.142;16.290;2023-08-01T06:10:29;20.80;99.90
14095;DHT22;18096;48.142;16.290;2023-08-01T06:12:54;20.90;99.90
14095;DHT22;18096;48.142;16.290;2023-08-01T06:15:20;20.80;99.90
14095;DHT22;18096;48.142;16.290;2023-08-01T06:17:46;20.80;99.90
14095;DHT22;18096;48.142;16.290;2023-08-01T06:20:12;20.80;99.90
14095;DHT22;18096;48.142;16.290;2023-08-01T06:22:38;20.80;99.90
14095;DHT22;18096;48.142;16.290;2023-08-01T06:25:03;20.80;99.90
14095;DHT22;18096;48.142;16.290;2023-08-01T06:27:29;20.90;99.90
14095;DHT22;18096;48.142;16.290;2023-08-01T06:29:54;20.90;99.90
14095;DHT22;18096;48.142;16.290;2023-08-01T06:32:20;20.90;99.90
14095;DHT22;18096;48.142;16.290;2023-08-01T06:34:45;20.90;99.90
14095;DHT22;18096;48.142;16.290;2023-08-01T06:37:11;21.00;99.90
14095;DHT22;18096;48.142;16.290;2023-08-01T06:39:36;21.00;99.90
14095;DHT22;18096;48.142;16.290;2023-08-01T06:42:02;21.00;99.90
14095;DHT22;18096;48.142;16.290;2023-08-01T06:44:28;21.00;99.90
14095;DHT22;18096;48.142;16.290;2023-08-01T06:46:53;21.00;99.90
14095;DHT22;18096;48.142;16.290;2023-08-01T06:49:19;21.00;99.90
14095;DHT22;18096;48.142;16.290;2023-08-01T06:51:44;21.10;99.90
14095;DHT22;18096;48.142;16.290;2023-08-01T06:54:10;21.10;99.90
14095;DHT22;18096;48.142;16.290;2023-08-01T06:56:35;21.10;99.90
14095;DHT22;18096;48.142;16.290;2023-08-01T06:59:01;21.10;99.90
14095;DHT22;18096;48.142;16.290;2023-08-01T07:01:26;21.10;99.90
14095;DHT22;18096;48.142;16.290;2023-08-01T07:03:52;21.10;99.90
14095;DHT22;18096;48.142;16.290;2023-08-01T07:06:17;21.20;99.90
14095;DHT22;18096;48.142;16.290;2023-08-01T07:08:43;21.20;99.90
14095;DHT22;18096;48.142;16.290;2023-08-01T07:11:09;21.30;99.90
14095;DHT22;18096;48.142;16.290;2023-08-01T07:13:34;21.30;99.90
14095;DHT22;18096;48.142;16.290;2023-08-01T07:16:00;21.40;99.90
14095;DHT22;18096;48.142;16.290;2023-08-01T07:18:25;21.40;99.90
14095;DHT22;18096;48.142;16.290;2023-08-01T07:21:04;21.40;99.90
14095;DHT22;18096;48.142;16.290;2023-08-01T07:23:30;21.40;99.90
14095;DHT22;18096;48.142;16.290;2023-08-01T07:25:56;21.40;99.90
14095;DHT22;18096;48.142;16.290;2023-08-01T07:28:21;21.50;99.90
14095;DHT22;18096;48.142;16.290;2023-08-01T07:30:47;21.50;99.90
14095;DHT22;18096;48.142;16.290;2023-08-01T07:33:13;21.50;99.90
14095;DHT22;18096;48.142;16.290;2023-08-01T07:35:38;21.60;99.90
14095;DHT22;18096;48.142;16.290;2023-08-01T07:38:04;21.60;99.90
14095;DHT22;18096;48.142;16.290;2023-08-01T07:40:29;21.60;99.90
14095;DHT22;18096;48.142;16.290;2023-08-01T07:42:55;21.60;99.90
14095;DHT22;18096;48.142;16.290;2023-08-01T07:45:21;21.60;99.90
14095;DHT22;18096;48.142;16.290;2023-08-01T07:47:47;21.60;99.90
14095;DHT22;18096;48.142;16.290;2023-08-01T07:50:13;21.60;99.90
14095;DHT22;18096;48.142;16.290;2023-08-01T07:52:38;21.60;99.90
14095;DHT22;18096;48.142;16.290;2023-08-01T07:55:04;21.60;99.90
14095;DHT22;18096;48.142;16.290;2023-08-01T07:57:30;21.60;99.90
14095;DHT22;18096;48.142;16.290;2023-08-01T07:59:56;21.70;99.90
14095;DHT22;18096;48.142;16.290;2023-08-01T08:02:21;21.70;99.90
14095;DHT22;18096;48.142;16.290;2023-08-01T08:04:47;21.70;99.90
14095;DHT22;18096;48.142;16.290;2023-08-01T08:07:13;21.60;99.90
14095;DHT22;18096;48.142;16.290;2023-08-01T08:09:39;21.60;99.90
14095;DHT22;18096;48.142;16.290;2023-08-01T08:12:05;21.50;99.90
14095;DHT22;18096;48.142;16.290;2023-08-01T08:14:31;21.50;99.90
14095;DHT22;18096;48.142;16.290;2023-08-01T08:16:56;21.40;99.90
14095;DHT22;18096;48.142;16.290;2023-08-01T08:19:22;21.40;99.90
14095;DHT22;18096;48.142;16.290;2023-08-01T08:21:49;21.40;99.90
14095;DHT22;18096;48.142;16.290;2023-08-01T08:24:15;21.50;99.90
14095;DHT22;18096;48.142;16.290;2023-08-01T08:26:41;21.50;99.90
14095;DHT22;18096;48.142;16.290;2023-08-01T08:29:06;21.50;99.90
14095;DHT22;18096;48.142;16.290;2023-08-01T08:31:32;21.50;99.90
14095;DHT22;18096;48.142;16.290;2023-08-01T08:33:58;21.40;99.90
14095;DHT22;18096;48.142;16.290;2023-08-01T08:36:23;21.40;99.90
14095;DHT22;18096;48.142;16.290;2023-08-01T08:38:49;21.50;99.90
14095;DHT22;18096;48.142;16.290;2023-08-01T08:41:20;21.50;99.90
14095;DHT22;18096;48.142;16.290;2023-08-01T08:43:48;21.50;99.90
14095;DHT22;18096;48.142;16.290;2023-08-01T08:46:15;21.50;99.90
14095;DHT22;18096;48.142;16.290;2023-08-01T08:48:42;21.50;99.90
14095;DHT22;18096;48.142;16.290;2023-08-01T08:51:09;21.50;99.90
14095;DHT22;18096;48.142;16.290;2023-08-01T08:53:36;21.50;99.90
14095;DHT22;18096;48.142;16.290;2023-08-01T08:56:02;21.50;99.90
14095;DHT22;18096;48.142;16.290;2023-08-01T08:58:31;21.50;99.90
14095;DHT22;18096;48.142;16.290;2023-08-01T09:00:58;21.50;99.90
14095;DHT22;18096;48.142;16.290;2023-08-01T09:03:24;21.50;99.90
14095;DHT22;18096;48.142;16.290;2023-08-01T09:05:52;21.50;99.90
14095;DHT22;18096;48.142;16.290;2023-08-01T09:08:21;21.50;99.90
14095;DHT22;18096;48.142;16.290;2023-08-01T09:10:47;21.60;99.90
14095;DHT22;18096;48.142;16.290;2023-08-01T09:13:13;21.60;99.90
14095;DHT22;18096;48.142;16.290;2023-08-01T09:15:41;21.70;99.90
14095;DHT22;18096;48.142;16.290;2023-08-01T09:18:08;21.70;99.90
14095;DHT22;18096;48.142;16.290;2023-08-01T09:20:48;21.70;99.90
14095;DHT22;18096;48.142;16.290;2023-08-01T09:23:14;21.70;99.90
14095;DHT22;18096;48.142;16.290;2023-08-01T09:25:40;21.70;99.90
14095;DHT22;18096;48.142;16.290;2023-08-01T09:28:19;21.70;99.90
14095;DHT22;18096;48.142;16.290;2023-08-01T09:30:50;21.70;99.90
14095;DHT22;18096;48.142;16.290;2023-08-01T09:33:16;21.60;99.90
14095;DHT22;18096;48.142;16.290;2023-08-01T09:35:42;21.70;99.90
14095;DHT22;18096;48.142;16.290;2023-08-01T09:38:10;21.60;99.90
14095;DHT22;18096;48.142;16.290;2023-08-01T09:40:40;21.60;99.90
14095;DHT22;18096;48.142;16.290;2023-08-01T09:43:05;21.60;99.90
14095;DHT22;18096;48.142;16.290;2023-08-01T09:45:31;21.50;99.90
14095;DHT22;18096;48.142;16.290;2023-08-01T09:47:57;21.50;99.90
14095;DHT22;18096;48.142;16.290;2023-08-01T09:50:23;21.50;99.90
14095;DHT22;18096;48.142;16.290;2023-08-01T09:52:49;21.50;99.90
14095;DHT22;18096;48.142;16.290;2023-08-01T09:55:34;21.50;99.90
14095;DHT22;18096;48.142;16.290;2023-08-01T09:58:00;21.40;99.90
14095;DHT22;18096;48.142;16.290;2023-08-01T10:00:27;21.40;99.90
14095;DHT22;18096;48.142;16.290;2023-08-01T10:02:56;21.40;99.90
14095;DHT22;18096;48.142;16.290;2023-08-01T10:05:23;21.40;99.90
14095;DHT22;18096;48.142;16.290;2023-08-01T10:07:51;21.30;99.90
14095;DHT22;18096;48.142;16.290;2023-08-01T10:10:20;21.30;99.90
14095;DHT22;18096;48.142;16.290;2023-08-01T10:12:46;21.30;99.90
14095;DHT22;18096;48.142;16.290;2023-08-01T10:15:15;21.30;99.90
14095;DHT22;18096;48.142;16.290;2023-08-01T10:17:41;21.20;99.90
14095;DHT22;18096;48.142;16.290;2023-08-01T10:20:07;21.20;99.90
14095;DHT22;18096;48.142;16.290;2023-08-01T10:22:34;21.20;99.90
14095;DHT22;18096;48.142;16.290;2023-08-01T10:25:00;21.10;99.90
14095;DHT22;18096;48.142;16.290;2023-08-01T10:27:26;21.10;99.90
14095;DHT22;18096;48.142;16.290;2023-08-01T10:29:59;21.10;99.90
14095;DHT22;18096;48.142;16.290;2023-08-01T10:32:32;21.00;99.90
14095;DHT22;18096;48.142;16.290;2023-08-01T10:34:59;21.10;99.90
14095;DHT22;18096;48.142;16.290;2023-08-01T10:37:25;21.00;99.90
14095;DHT22;18096;48.142;16.290;2023-08-01T10:39:58;21.00;99.90
14095;DHT22;18096;48.142;16.290;2023-08-01T10:42:24;21.00;99.90
14095;DHT22;18096;48.142;16.290;2023-08-01T10:44:50;21.00;99.90
14095;DHT22;18096;48.142;16.290;2023-08-01T10:47:25;21.00;99.90
14095;DHT22;18096;48.142;16.290;2023-08-01T10:49:52;20.90;99.90
14095;DHT22;18096;48.142;16.290;2023-08-01T10:52:22;20.80;99.90
14095;DHT22;18096;48.142;16.290;2023-08-01T10:55:01;20.70;99.90
14095;DHT22;18096;48.142;16.290;2023-08-01T10:57:29;20.60;99.90
14095;DHT22;18096;48.142;16.290;2023-08-01T10:59:56;20.60;99.90
14095;DHT22;18096;48.142;16.290;2023-08-01T11:02:27;20.50;99.90
14095;DHT22;18096;48.142;16.290;2023-08-01T11:04:59;20.50;99.90
14095;DHT22;18096;48.142;16.290;2023-08-01T11:07:25;20.50;99.90
14095;DHT22;18096;48.142;16.290;2023-08-01T11:10:12;20.50;99.90
14095;DHT22;18096;48.142;16.290;2023-08-01T11:12:43;20.40;99.90
14095;DHT22;18096;48.142;16.290;2023-08-01T11:15:10;20.40;99.90
14095;DHT22;18096;48.142;16.290;2023-08-01T11:17:37;20.40;99.90
14095;DHT22;18096;48.142;16.290;2023-08-01T11:20:05;20.40;99.90
14095;DHT22;18096;48.142;16.290;2023-08-01T11:22:33;20.40;99.90
14095;DHT22;18096;48.142;16.290;2023-08-01T11:24:58;20.40;99.90
14095;DHT22;18096;48.142;16.290;2023-08-01T11:27:25;20.30;99.90
14095;DHT22;18096;48.142;16.290;2023-08-01T11:29:51;20.30;99.90
14095;DHT22;18096;48.142;16.290;2023-08-01T11:32:18;20.30;99.90
14095;DHT22;18096;48.142;16.290;2023-08-01T11:34:45;20.30;99.90
14095;DHT22;18096;48.142;16.290;2023-08-01T11:37:12;20.20;99.90
14095;DHT22;18096;48.142;16.290;2023-08-01T11:39:39;20.20;99.90
14095;DHT22;18096;48.142;16.290;2023-08-01T11:42:05;20.20;99.90
14095;DHT22;18096;48.142;16.290;2023-08-01T11:44:31;20.10;99.90
14095;DHT22;18096;48.142;16.290;2023-08-01T11:46:57;20.10;99.90
14095;DHT22;18096;48.142;16.290;2023-08-01T11:49:23;20.00;99.90
14095;DHT22;18096;48.142;16.290;2023-08-01T11:51:49;20.00;99.90
14095;DHT22;18096;48.142;16.290;2023-08-01T11:54:15;20.00;99.90
14095;DHT22;18096;48.142;16.290;2023-08-01T11:56:41;19.90;99.90
14095;DHT22;18096;48.142;16.290;2023-08-01T11:59:12;19.90;99.90
14095;DHT22;18096;48.142;16.290;2023-08-01T12:01:39;20.00;99.90
14095;DHT22;18096;48.142;16.290;2023-08-01T12:04:05;20.00;99.90
14095;DHT22;18096;48.142;16.290;2023-08-01T12:06:34;20.00;99.90
14095;DHT22;18096;48.142;16.290;2023-08-01T12:09:13;20.00;99.90
14095;DHT22;18096;48.142;16.290;2023-08-01T12:11:40;20.00;99.90
14095;DHT22;18096;48.142;16.290;2023-08-01T12:14:12;20.10;99.90
14095;DHT22;18096;48.142;16.290;2023-08-01T12:16:38;20.10;99.90
14095;DHT22;18096;48.142;16.290;2023-08-01T12:19:04;20.00;99.90
14095;DHT22;18096;48.142;16.290;2023-08-01T12:21:32;20.00;99.90
14095;DHT22;18096;48.142;16.290;2023-08-01T12:23:58;19.90;99.90
14095;DHT22;18096;48.142;16.290;2023-08-01T12:26:24;19.90;99.90
14095;DHT22;18096;48.142;16.290;2023-08-01T12:28:49;19.80;99.90
14095;DHT22;18096;48.142;16.290;2023-08-01T12:31:19;19.80;99.90
14095;DHT22;18096;48.142;16.290;2023-08-01T12:33:46;19.90;99.90
14095;DHT22;18096;48.142;16.290;2023-08-01T12:36:15;19.90;99.90
14095;DHT22;18096;48.142;16.290;2023-08-01T12:38:40;19.90;99.90
14095;DHT22;18096;48.142;16.290;2023-08-01T12:41:07;20.00;99.90
14095;DHT22;18096;48.142;16.290;2023-08-01T12:43:33;19.90;99.90
14095;DHT22;18096;48.142;16.290;2023-08-01T12:45:58;19.90;99.90
14095;DHT22;18096;48.142;16.290;2023-08-01T12:48:25;19.90;99.90
14095;DHT22;18096;48.142;16.290;2023-08-01T12:50:51;19.90;99.90
14095;DHT22;18096;48.142;16.290;2023-08-01T12:53:17;19.80;99.90
14095;DHT22;18096;48.142;16.290;2023-08-01T12:55:43;19.80;99.90
14095;DHT22;18096;48.142;16.290;2023-08-01T12:58:10;19.80;99.90
14095;DHT22;18096;48.142;16.290;2023-08-01T13:00:35;19.80;99.90
14095;DHT22;18096;48.142;16.290;2023-08-01T13:03:01;19.80;99.90
14095;DHT22;18096;48.142;16.290;2023-08-01T13:05:27;19.70;99.90
14095;DHT22;18096;48.142;16.290;2023-08-01T13:07:53;19.70;99.90
14095;DHT22;18096;48.142;16.290;2023-08-01T13:10:18;19.70;99.90
14095;DHT22;18096;48.142;16.290;2023-08-01T13:12:44;19.70;99.90
14095;DHT22;18096;48.142;16.290;2023-08-01T13:15:09;19.70;99.90
14095;DHT22;18096;48.142;16.290;2023-08-01T13:17:35;19.70;99.90
14095;DHT22;18096;48.142;16.290;2023-08-01T13:20:01;19.60;99.90
14095;DHT22;18096;48.142;16.290;2023-08-01T13:22:26;19.60;99.90
14095;DHT22;18096;48.142;16.290;2023-08-01T13:24:52;19.60;99.90
14095;DHT22;18096;48.142;16.290;2023-08-01T13:27:17;19.60;99.90
14095;DHT22;18096;48.142;16.290;2023-08-01T13:29:43;19.60;99.90
14095;DHT22;18096;48.142;16.290;2023-08-01T13:32:09;19.60;99.90
14095;DHT22;18096;48.142;16.290;2023-08-01T13:34:34;19.60;99.90
14095;DHT22;18096;48.142;16.290;2023-08-01T13:37:00;19.50;99.90
14095;DHT22;18096;48.142;16.290;2023-08-01T13:39:25;19.50;99.90
14095;DHT22;18096;48.142;16.290;2023-08-01T13:41:51;19.40;99.90
14095;DHT22;18096;48.142;16.290;2023-08-01T13:44:17;19.40;99.90
14095;DHT22;18096;48.142;16.290;2023-08-01T13:46:42;19.40;99.90
14095;DHT22;18096;48.142;16.290;2023-08-01T13:49:08;19.40;99.90
14095;DHT22;18096;48.142;16.290;2023-08-01T13:51:34;19.40;99.90
14095;DHT22;18096;48.142;16.290;2023-08-01T13:53:59;19.40;99.90
14095;DHT22;18096;48.142;16.290;2023-08-01T13:56:25;19.40;99.90
14095;DHT22;18096;48.142;16.290;2023-08-01T13:58:51;19.40;99.90
14095;DHT22;18096;48.142;16.290;2023-08-01T14:01:17;19.40;99.90
14095;DHT22;18096;48.142;16.290;2023-08-01T14:03:46;19.40;99.90
14095;DHT22;18096;48.142;16.290;2023-08-01T14:06:13;19.40;99.90
14095;DHT22;18096;48.142;16.290;2023-08-01T14:08:40;19.50;99.90
14095;DHT22;18096;48.142;16.290;2023-08-01T14:11:07;19.50;99.90
14095;DHT22;18096;48.142;16.290;2023-08-01T14:13:33;19.50;99.90
14095;DHT22;18096;48.142;16.290;2023-08-01T14:16:00;19.50;99.90
14095;DHT22;18096;48.142;16.290;2023-08-01T14:18:27;19.50;99.90
14095;DHT22;18096;48.142;16.290;2023-08-01T14:20:52;19.50;99.90
14095;DHT22;18096;48.142;16.290;2023-08-01T14:23:19;19.50;99.90
14095;DHT22;18096;48.142;16.290;2023-08-01T14:25:44;19.40;99.90
14095;DHT22;18096;48.142;16.290;2023-08-01T14:28:10;19.40;99.90
14095;DHT22;18096;48.142;16.290;2023-08-01T14:30:37;19.40;99.90
14095;DHT22;18096;48.142;16.290;2023-08-01T14:33:05;19.40;99.90
14095;DHT22;18096;48.142;16.290;2023-08-01T14:35:31;19.40;99.90
14095;DHT22;18096;48.142;16.290;2023-08-01T14:37:58;19.40;99.90
14095;DHT22;18096;48.142;16.290;2023-08-01T14:40:25;19.40;99.90
14095;DHT22;18096;48.142;16.290;2023-08-01T14:42:51;19.40;99.90
14095;DHT22;18096;48.142;16.290;2023-08-01T14:45:17;19.30;99.90
14095;DHT22;18096;48.142;16.290;2023-08-01T14:47:44;19.30;99.90
14095;DHT22;18096;48.142;16.290;2023-08-01T14:50:11;19.30;99.90
14095;DHT22;18096;48.142;16.290;2023-08-01T14:52:37;19.30;99.90
14095;DHT22;18096;48.142;16.290;2023-08-01T14:55:03;19.30;99.90
14095;DHT22;18096;48.142;16.290;2023-08-01T14:57:29;19.30;99.90
14095;DHT22;18096;48.142;16.290;2023-08-01T14:59:54;19.30;99.90
14095;DHT22;18096;48.142;16.290;2023-08-01T15:02:20;19.30;99.90
14095;DHT22;18096;48.142;16.290;2023-08-01T15:04:55;19.30;99.90
14095;DHT22;18096;48.142;16.290;2023-08-01T15:07:22;19.20;99.90
14095;DHT22;18096;48.142;16.290;2023-08-01T15:09:48;19.20;99.90